Terminal Aerodrome Forecast
Issued by NWS

Home | Current Version | Previous Version | Graphics & Text | Print | Product List | Glossary Off
Versions: 1 2 3 4 5 6 7 8 9 10 11 12

000
FTUS43 KMPX 181720
TAFRWF
TAF
KRWF 181720Z 1818/1918 11011KT P6SM BKN200
     FM190000 12012G20KT 6SM -RA OVC040
     FM190300 14014G22KT 4SM -RA BR SCT008 OVC017
     FM191000 18012KT P6SM VCSH OVC015
     FM191200 30012G19KT P6SM BKN015=

USA.gov is the U.S. government's official web portal to all federal, state and local government web resources and services.